createdAt,value
2022-10-05T00:01:16.772Z,7.70
2022-10-05T00:03:45.757Z,7.70
2022-10-05T00:06:15.185Z,7.80
2022-10-05T00:08:42.731Z,7.70
2022-10-05T00:11:15.168Z,7.70
2022-10-05T00:13:42.360Z,7.80
2022-10-05T00:16:16.727Z,7.90
2022-10-05T00:18:51.738Z,7.80
2022-10-05T00:21:20.608Z,7.80
2022-10-05T00:23:47.573Z,7.80
2022-10-05T00:26:27.976Z,7.80
2022-10-05T00:28:55.123Z,7.70
2022-10-05T00:31:24.610Z,7.60
2022-10-05T00:33:51.784Z,7.50
2022-10-05T00:36:21.305Z,7.50
2022-10-05T00:38:48.134Z,7.50
2022-10-05T00:41:20.834Z,7.40
2022-10-05T00:44:16.642Z,7.50
2022-10-05T00:47:02.259Z,7.50
2022-10-05T00:49:28.970Z,7.50
2022-10-05T00:52:34.785Z,7.50
2022-10-05T00:55:22.552Z,7.50
2022-10-05T00:58:10.584Z,7.40
2022-10-05T01:00:54.326Z,7.30
2022-10-05T01:03:58.165Z,7.20
2022-10-05T01:06:31.119Z,7.20
2022-10-05T01:09:25.627Z,7.10
2022-10-05T01:12:08.477Z,7.10
2022-10-05T01:14:55.038Z,7.10
2022-10-05T01:17:30.527Z,7.10
2022-10-05T01:20:25.761Z,7.10
2022-10-05T01:23:16.892Z,7.10
2022-10-05T01:26:20.688Z,7.00
2022-10-05T01:29:01.269Z,7.00
2022-10-05T01:32:01.756Z,7.00
2022-10-05T01:34:31.532Z,7.00
2022-10-05T01:37:13.233Z,6.90
2022-10-05T01:40:01.248Z,6.90
2022-10-05T01:42:51.715Z,6.90
2022-10-05T01:45:57.908Z,6.90
2022-10-05T01:48:57.789Z,6.80
2022-10-05T01:51:49.098Z,6.80
2022-10-05T01:54:18.622Z,6.70
2022-10-05T01:57:16.105Z,6.70
2022-10-05T02:00:01.414Z,6.80
2022-10-05T02:02:34.790Z,6.90
2022-10-05T02:05:22.611Z,6.80
2022-10-05T02:08:09.739Z,6.70
2022-10-05T02:11:06.093Z,6.60
2022-10-05T02:13:44.732Z,6.60
2022-10-05T02:16:19.119Z,6.60
2022-10-05T02:19:00.447Z,6.60
2022-10-05T02:21:30.337Z,6.60
2022-10-05T02:24:04.182Z,6.60
2022-10-05T02:26:36.084Z,6.60
2022-10-05T02:29:09.511Z,6.50
2022-10-05T02:31:54.516Z,6.50
2022-10-05T02:34:21.363Z,6.50
2022-10-05T02:37:14.390Z,6.60
2022-10-05T02:40:10.004Z,6.70
2022-10-05T02:42:54.508Z,6.70
2022-10-05T02:45:46.276Z,6.70
2022-10-05T02:48:35.041Z,6.80
2022-10-05T02:51:28.635Z,6.80
2022-10-05T02:54:36.692Z,6.80
2022-10-05T02:57:23.836Z,6.70
2022-10-05T03:00:25.835Z,6.60
2022-10-05T03:03:43.460Z,6.50
2022-10-05T03:06:27.701Z,6.50
2022-10-05T03:09:04.259Z,6.60
2022-10-05T03:11:58.528Z,6.60
2022-10-05T03:14:51.675Z,6.60
2022-10-05T03:17:22.387Z,6.60
2022-10-05T03:20:07.097Z,6.50
2022-10-05T03:22:58.186Z,6.40
2022-10-05T03:25:52.234Z,6.40
2022-10-05T03:28:33.315Z,6.40
2022-10-05T03:31:14.916Z,6.50
2022-10-05T03:34:10.088Z,6.50
2022-10-05T03:36:48.913Z,6.40
2022-10-05T03:39:27.863Z,6.30
2022-10-05T03:42:00.746Z,6.30
2022-10-05T03:44:36.636Z,6.40
2022-10-05T03:47:10.945Z,6.30
2022-10-05T03:50:01.127Z,6.20
2022-10-05T03:52:39.967Z,6.20
2022-10-05T03:56:05.192Z,6.30
2022-10-05T03:59:08.081Z,6.30
2022-10-05T04:02:02.744Z,6.30
2022-10-05T04:04:46.669Z,6.30
2022-10-05T04:07:27.958Z,6.30
2022-10-05T04:09:55.910Z,6.40
2022-10-05T04:12:24.439Z,6.30
2022-10-05T04:14:58.283Z,6.40
2022-10-05T04:17:47.147Z,6.30
2022-10-05T04:20:25.471Z,6.20
2022-10-05T04:23:10.181Z,6.20
2022-10-05T04:25:45.347Z,6.20
2022-10-05T04:28:55.820Z,6.30
2022-10-05T04:32:02.828Z,6.30
2022-10-05T04:34:40.851Z,6.20
2022-10-05T04:37:24.260Z,6.20
2022-10-05T04:40:19.579Z,6.20
2022-10-05T04:42:54.579Z,6.10
2022-10-05T04:45:30.585Z,6.10
2022-10-05T04:47:57.201Z,6.10
2022-10-05T04:50:23.932Z,6.10
2022-10-05T04:53:24.458Z,6.10
2022-10-05T04:56:02.509Z,6.00
2022-10-05T04:59:10.882Z,6.10
2022-10-05T05:01:43.253Z,6.00
2022-10-05T05:04:28.496Z,6.10
2022-10-05T05:07:03.449Z,6.00
2022-10-05T05:09:44.804Z,6.00
2022-10-05T05:12:20.743Z,6.10
2022-10-05T05:15:06.087Z,6.00
2022-10-05T05:17:35.141Z,6.00
2022-10-05T05:20:39.594Z,6.00
2022-10-05T05:23:19.707Z,6.00
2022-10-05T05:26:08.289Z,5.90
2022-10-05T05:28:50.539Z,5.90
2022-10-05T05:31:26.219Z,5.90
2022-10-05T05:34:12.600Z,5.90
2022-10-05T05:36:56.842Z,6.00
2022-10-05T05:39:30.926Z,6.00
2022-10-05T05:42:17.033Z,6.00
2022-10-05T05:44:51.976Z,6.00
2022-10-05T05:47:26.782Z,6.00
2022-10-05T05:49:53.566Z,6.00
2022-10-05T05:52:26.358Z,6.00
2022-10-05T05:55:29.691Z,6.10
2022-10-05T05:57:59.025Z,6.20
2022-10-05T06:00:53.516Z,6.20
2022-10-05T06:03:41.143Z,6.30
2022-10-05T06:06:13.119Z,6.30
2022-10-05T06:08:48.672Z,6.40
2022-10-05T06:11:28.992Z,6.40
2022-10-05T06:14:11.575Z,6.40
2022-10-05T06:16:50.180Z,6.50
2022-10-05T06:19:21.289Z,6.60
2022-10-05T06:21:53.362Z,6.70
2022-10-05T06:24:29.926Z,6.70
2022-10-05T06:27:24.013Z,6.80
2022-10-05T06:30:07.306Z,6.80
2022-10-05T06:33:02.073Z,6.90
2022-10-05T06:35:46.296Z,7.00
2022-10-05T06:38:41.945Z,7.10
2022-10-05T06:41:10.758Z,7.20
2022-10-05T06:43:47.342Z,7.20
2022-10-05T06:46:51.430Z,7.30
2022-10-05T06:49:42.434Z,7.40
2022-10-05T06:52:38.181Z,7.50
2022-10-05T06:55:04.868Z,7.50
2022-10-05T06:57:43.265Z,7.60
2022-10-05T07:00:27.548Z,7.70
2022-10-05T07:03:05.100Z,7.80
2022-10-05T07:05:59.497Z,7.90
2022-10-05T07:08:34.469Z,8.10
2022-10-05T07:11:37.782Z,8.20
2022-10-05T07:14:43.457Z,8.40
2022-10-05T07:17:16.083Z,8.60
2022-10-05T07:20:01.025Z,8.70
2022-10-05T07:23:12.327Z,8.80
2022-10-05T07:25:59.570Z,8.90
2022-10-05T07:28:35.178Z,9.00
2022-10-05T07:31:30.731Z,9.00
2022-10-05T07:34:12.305Z,9.10
2022-10-05T07:37:13.792Z,9.20
2022-10-05T07:40:05.430Z,9.30
2022-10-05T07:42:51.751Z,9.40
2022-10-05T07:45:37.926Z,9.50
2022-10-05T07:48:17.762Z,9.70
2022-10-05T07:51:08.666Z,9.80
2022-10-05T07:53:41.727Z,9.90
2022-10-05T07:56:18.671Z,10.00
2022-10-05T07:58:54.129Z,10.10
2022-10-05T08:01:29.658Z,10.20
2022-10-05T08:04:15.546Z,10.30
2022-10-05T08:06:53.525Z,10.30
2022-10-05T08:09:28.849Z,10.40
2022-10-05T08:12:16.740Z,10.50
2022-10-05T08:15:15.374Z,10.60
2022-10-05T08:17:56.939Z,10.70
2022-10-05T08:20:41.646Z,10.80
2022-10-05T08:23:30.205Z,10.80
2022-10-05T08:26:11.936Z,10.90
2022-10-05T08:28:51.023Z,11.00
2022-10-05T08:31:27.250Z,11.10
2022-10-05T08:34:03.814Z,11.20
2022-10-05T08:36:55.724Z,11.30
2022-10-05T08:39:26.942Z,11.40
2022-10-05T08:42:28.423Z,11.40
2022-10-05T08:45:30.116Z,11.50
2022-10-05T08:48:27.312Z,11.60
2022-10-05T08:51:18.252Z,11.70
2022-10-05T08:54:07.016Z,11.80
2022-10-05T08:56:39.779Z,12.00
2022-10-05T08:59:06.466Z,12.10
2022-10-05T09:01:33.120Z,12.20
2022-10-05T09:04:08.155Z,12.30
2022-10-05T09:07:12.530Z,12.40
2022-10-05T09:10:07.924Z,12.50
2022-10-05T09:12:47.535Z,12.60
2022-10-05T09:15:34.547Z,12.60
2022-10-05T09:18:51.634Z,12.70
2022-10-05T09:21:41.701Z,12.80
2022-10-05T09:24:39.888Z,13.00
2022-10-05T09:27:16.851Z,13.10
2022-10-05T09:29:58.254Z,13.30
2022-10-05T09:32:42.985Z,13.40
2022-10-05T09:35:22.295Z,13.50
2022-10-05T09:37:48.973Z,13.70
2022-10-05T09:40:44.647Z,13.70
2022-10-05T09:43:17.216Z,13.80
2022-10-05T09:45:48.658Z,14.00
2022-10-05T09:48:46.214Z,14.10
2022-10-05T09:51:12.842Z,14.20
2022-10-05T09:53:57.022Z,14.30
2022-10-05T09:56:31.362Z,14.30
2022-10-05T09:59:10.261Z,14.40
2022-10-05T10:02:07.377Z,14.60
2022-10-05T10:05:04.096Z,14.70
2022-10-05T10:07:52.535Z,14.80
2022-10-05T10:10:33.542Z,14.90
2022-10-05T10:13:40.477Z,15.10
2022-10-05T10:16:33.974Z,15.20
2022-10-05T10:19:08.969Z,15.30
2022-10-05T10:22:08.934Z,15.40
2022-10-05T10:24:50.026Z,15.40
2022-10-05T10:27:35.335Z,15.60
2022-10-05T10:30:20.080Z,15.70
2022-10-05T10:33:01.719Z,15.80
2022-10-05T10:35:53.124Z,15.80
2022-10-05T10:38:23.739Z,15.90
2022-10-05T10:41:02.087Z,16.00
2022-10-05T10:43:53.319Z,16.10
2022-10-05T10:46:50.701Z,16.20
2022-10-05T10:49:55.676Z,16.40
2022-10-05T10:52:34.287Z,16.60
2022-10-05T10:55:22.076Z,16.60
2022-10-05T10:58:06.710Z,16.60
2022-10-05T11:01:13.479Z,16.60
2022-10-05T11:04:06.937Z,16.80
2022-10-05T11:07:03.257Z,17.10
2022-10-05T11:09:29.912Z,17.30
2022-10-05T11:11:58.950Z,17.50
2022-10-05T11:14:40.853Z,17.50
2022-10-05T11:17:34.988Z,17.60
2022-10-05T11:20:37.664Z,17.80
2022-10-05T11:23:28.240Z,17.90
2022-10-05T11:26:16.848Z,18.20
2022-10-05T11:29:18.915Z,18.30
2022-10-05T11:32:10.449Z,18.50
2022-10-05T11:34:39.897Z,18.60
2022-10-05T11:37:06.547Z,18.80
2022-10-05T11:40:14.400Z,18.80
2022-10-05T11:43:04.291Z,18.70
2022-10-05T11:45:45.995Z,18.80
2022-10-05T11:48:31.228Z,19.00
2022-10-05T11:51:29.072Z,19.10
2022-10-05T11:53:58.114Z,19.20
2022-10-05T11:56:36.689Z,19.20
2022-10-05T11:59:18.968Z,19.10
2022-10-05T12:02:09.195Z,19.10
2022-10-05T12:04:47.417Z,19.30
2022-10-05T12:07:25.649Z,19.50
2022-10-05T12:10:23.349Z,19.60
2022-10-05T12:12:58.285Z,19.70
2022-10-05T12:15:37.278Z,19.80
2022-10-05T12:18:15.598Z,19.90
2022-10-05T12:20:57.939Z,19.90
2022-10-05T12:23:24.629Z,19.80
2022-10-05T12:26:11.081Z,19.80
2022-10-05T12:28:45.751Z,20.00
2022-10-05T12:31:21.712Z,20.10
2022-10-05T12:34:09.800Z,20.20
2022-10-05T12:37:04.971Z,20.30
2022-10-05T12:40:11.332Z,20.30
2022-10-05T12:43:07.530Z,20.40
2022-10-05T12:46:00.198Z,20.50
2022-10-05T12:48:56.234Z,20.50
2022-10-05T12:51:38.294Z,20.50
2022-10-05T12:54:23.735Z,20.60
2022-10-05T12:57:15.665Z,20.70
2022-10-05T12:59:44.590Z,20.70
2022-10-05T13:02:14.181Z,20.70
2022-10-05T13:05:11.121Z,20.70
2022-10-05T13:08:01.468Z,20.80
2022-10-05T13:10:35.569Z,20.90
2022-10-05T13:13:08.047Z,21.00
2022-10-05T13:15:43.782Z,21.00
2022-10-05T13:18:12.826Z,20.90
2022-10-05T13:21:02.665Z,20.80
2022-10-05T13:23:58.560Z,20.80
2022-10-05T13:26:35.709Z,20.80
2022-10-05T13:29:29.190Z,20.90
2022-10-05T13:32:04.749Z,21.00
2022-10-05T13:34:43.318Z,20.90
2022-10-05T13:37:12.167Z,20.80
2022-10-05T13:40:06.279Z,20.80
2022-10-05T13:43:04.072Z,21.00
2022-10-05T13:45:55.792Z,21.20
2022-10-05T13:49:03.477Z,21.20
2022-10-05T13:52:00.134Z,21.20
2022-10-05T13:54:28.157Z,21.30
2022-10-05T13:57:01.958Z,21.40
2022-10-05T13:59:38.214Z,21.40
2022-10-05T14:02:11.010Z,21.50
2022-10-05T14:04:59.863Z,21.50
2022-10-05T14:07:34.816Z,21.60
2022-10-05T14:10:04.570Z,21.70
2022-10-05T14:12:45.779Z,21.60
2022-10-05T14:15:32.499Z,21.60
2022-10-05T14:17:59.690Z,21.50
2022-10-05T14:20:31.684Z,21.40
2022-10-05T14:23:10.973Z,21.40
2022-10-05T14:25:54.114Z,21.40
2022-10-05T14:28:21.032Z,21.40
2022-10-05T14:31:00.663Z,21.30
2022-10-05T14:33:33.650Z,21.30
2022-10-05T14:36:00.865Z,21.30
2022-10-05T14:38:29.421Z,21.30
2022-10-05T14:41:07.891Z,21.30
2022-10-05T14:43:34.990Z,21.30
2022-10-05T14:46:23.309Z,21.20
2022-10-05T14:49:17.113Z,21.20
2022-10-05T14:51:49.225Z,21.30
2022-10-05T14:54:41.218Z,21.30
2022-10-05T14:57:34.047Z,21.30
2022-10-05T15:00:10.675Z,21.20
2022-10-05T15:02:48.676Z,21.10
2022-10-05T15:05:17.129Z,21.10
2022-10-05T15:07:48.179Z,21.00
2022-10-05T15:10:38.688Z,21.00
2022-10-05T15:13:16.311Z,20.90
2022-10-05T15:15:47.151Z,20.90
2022-10-05T15:18:22.612Z,20.80
2022-10-05T15:21:06.343Z,20.70
2022-10-05T15:23:42.721Z,20.60
2022-10-05T15:26:11.555Z,20.50
2022-10-05T15:29:01.865Z,20.50
2022-10-05T15:31:36.802Z,20.40
2022-10-05T15:34:07.984Z,20.30
2022-10-05T15:36:49.805Z,20.30
2022-10-05T15:39:43.364Z,20.20
2022-10-05T15:42:23.859Z,20.10
2022-10-05T15:45:14.709Z,20.00
2022-10-05T15:48:00.906Z,19.80
2022-10-05T15:50:50.525Z,19.70
2022-10-05T15:53:45.215Z,19.60
2022-10-05T15:56:21.103Z,19.50
2022-10-05T15:59:02.915Z,19.40
2022-10-05T16:01:32.417Z,19.20
2022-10-05T16:04:05.076Z,19.20
2022-10-05T16:07:16.610Z,19.00
2022-10-05T16:09:52.267Z,19.00
2022-10-05T16:12:24.818Z,19.00
2022-10-05T16:15:03.288Z,19.00
2022-10-05T16:17:55.073Z,18.90
2022-10-05T16:20:30.633Z,18.90
2022-10-05T16:23:54.127Z,18.70
2022-10-05T16:26:32.600Z,18.60
2022-10-05T16:29:14.363Z,18.40
2022-10-05T16:32:07.342Z,18.30
2022-10-05T16:35:03.260Z,18.10
2022-10-05T16:37:38.780Z,18.00
2022-10-05T16:40:31.315Z,17.90
2022-10-05T16:43:30.170Z,17.80
2022-10-05T16:46:15.159Z,17.50
2022-10-05T16:49:02.557Z,17.30
2022-10-05T16:51:38.102Z,17.10
2022-10-05T16:54:23.167Z,16.90
2022-10-05T16:57:09.508Z,16.80
2022-10-05T16:59:50.167Z,16.70
2022-10-05T17:02:37.577Z,16.50
2022-10-05T17:05:38.559Z,16.40
2022-10-05T17:08:26.533Z,16.20
2022-10-05T17:11:30.425Z,16.10
2022-10-05T17:14:29.560Z,15.90
2022-10-05T17:17:20.651Z,15.80
2022-10-05T17:20:16.068Z,15.60
2022-10-05T17:22:59.656Z,15.50
2022-10-05T17:25:57.673Z,15.30
2022-10-05T17:28:41.720Z,15.20
2022-10-05T17:31:22.097Z,15.10
2022-10-05T17:34:35.337Z,15.00
2022-10-05T17:37:31.927Z,14.90
2022-10-05T17:39:59.135Z,14.80
2022-10-05T17:42:34.277Z,14.70
2022-10-05T17:45:20.924Z,14.60
2022-10-05T17:48:05.791Z,14.60
2022-10-05T17:51:05.845Z,14.50
2022-10-05T17:54:03.126Z,14.40
2022-10-05T17:56:32.015Z,14.40
2022-10-05T17:59:07.351Z,14.30
2022-10-05T18:01:37.970Z,14.20
2022-10-05T18:04:13.844Z,14.20
2022-10-05T18:06:51.823Z,14.10
2022-10-05T18:09:30.826Z,14.00
2022-10-05T18:12:19.237Z,14.00
2022-10-05T18:15:07.080Z,13.90
2022-10-05T18:17:51.479Z,13.80
2022-10-05T18:20:34.704Z,13.80
2022-10-05T18:23:07.519Z,13.80
2022-10-05T18:25:43.713Z,13.70
2022-10-05T18:28:29.478Z,13.70
2022-10-05T18:31:16.306Z,13.70
2022-10-05T18:34:07.513Z,13.50
2022-10-05T18:36:49.076Z,13.40
2022-10-05T18:39:32.017Z,13.40
2022-10-05T18:42:20.243Z,13.30
2022-10-05T18:44:54.783Z,13.20
2022-10-05T18:47:30.178Z,13.20
2022-10-05T18:50:29.035Z,13.20
2022-10-05T18:53:29.713Z,13.10
2022-10-05T18:56:10.820Z,13.00
2022-10-05T18:58:59.140Z,13.00
2022-10-05T19:01:47.374Z,12.90
2022-10-05T19:04:30.245Z,12.80
2022-10-05T19:07:27.547Z,12.80
2022-10-05T19:10:10.117Z,12.70
2022-10-05T19:12:52.085Z,12.70
2022-10-05T19:15:28.705Z,12.60
2022-10-05T19:18:10.121Z,12.60
2022-10-05T19:20:41.306Z,12.50
2022-10-05T19:23:51.245Z,12.50
2022-10-05T19:26:29.600Z,12.40
2022-10-05T19:29:22.719Z,12.40
2022-10-05T19:32:02.058Z,12.30
2022-10-05T19:34:43.688Z,12.20
2022-10-05T19:37:24.186Z,12.20
2022-10-05T19:40:07.266Z,12.20
2022-10-05T19:43:18.947Z,12.20
2022-10-05T19:46:17.660Z,12.10
2022-10-05T19:48:53.903Z,12.00
2022-10-05T19:51:25.367Z,12.00
2022-10-05T19:53:55.902Z,11.90
2022-10-05T19:56:25.526Z,11.90
2022-10-05T19:59:00.953Z,11.90
2022-10-05T20:01:36.842Z,12.00
2022-10-05T20:04:07.311Z,11.90
2022-10-05T20:06:34.560Z,11.90
2022-10-05T20:09:19.310Z,11.80
2022-10-05T20:11:51.162Z,11.80
2022-10-05T20:14:56.102Z,11.70
2022-10-05T20:17:45.934Z,11.70
2022-10-05T20:20:36.939Z,11.70
2022-10-05T20:23:44.786Z,11.70
2022-10-05T20:27:06.595Z,11.60
2022-10-05T20:29:36.603Z,11.60
2022-10-05T20:32:12.188Z,11.60
2022-10-05T20:34:43.442Z,11.60
2022-10-05T20:37:15.230Z,11.50
2022-10-05T20:39:42.651Z,11.50
2022-10-05T20:42:10.404Z,11.40
2022-10-05T20:44:40.356Z,11.40
2022-10-05T20:47:10.159Z,11.40
2022-10-05T20:49:38.788Z,11.30
2022-10-05T20:52:09.630Z,11.30
2022-10-05T20:54:39.894Z,11.20
2022-10-05T20:57:07.304Z,11.20
2022-10-05T20:59:37.253Z,11.20
2022-10-05T21:02:06.962Z,11.20
2022-10-05T21:04:42.905Z,11.10
2022-10-05T21:07:10.065Z,11.10
2022-10-05T21:09:43.512Z,11.10
2022-10-05T21:12:10.967Z,11.00
2022-10-05T21:14:38.078Z,11.00
2022-10-05T21:17:11.988Z,10.90
2022-10-05T21:19:43.705Z,10.90
2022-10-05T21:22:10.550Z,10.80
2022-10-05T21:24:45.729Z,10.90
2022-10-05T21:27:15.076Z,10.90
2022-10-05T21:29:42.029Z,10.80
2022-10-05T21:32:11.477Z,10.80
2022-10-05T21:34:39.551Z,10.80
2022-10-05T21:37:07.061Z,10.80
2022-10-05T21:39:36.656Z,10.70
2022-10-05T21:42:06.425Z,10.70
2022-10-05T21:44:33.179Z,10.60
2022-10-05T21:47:02.478Z,10.60
2022-10-05T21:49:33.976Z,10.60
2022-10-05T21:52:05.315Z,10.60
2022-10-05T21:54:32.768Z,10.60
2022-10-05T21:57:00.367Z,10.50
2022-10-05T21:59:31.246Z,10.50
2022-10-05T22:01:58.354Z,10.50
2022-10-05T22:04:27.946Z,10.50
2022-10-05T22:06:58.006Z,10.50
2022-10-05T22:09:29.383Z,10.40
2022-10-05T22:11:58.195Z,10.40
2022-10-05T22:14:28.269Z,10.40
2022-10-05T22:16:57.487Z,10.40
2022-10-05T22:19:26.435Z,10.40
2022-10-05T22:21:53.120Z,10.30
2022-10-05T22:24:19.845Z,10.30
2022-10-05T22:26:51.420Z,10.30
2022-10-05T22:29:21.254Z,10.30
2022-10-05T22:31:51.049Z,10.30
2022-10-05T22:34:18.285Z,10.30
2022-10-05T22:36:48.824Z,10.20
2022-10-05T22:39:18.074Z,10.20
2022-10-05T22:41:47.446Z,10.20
2022-10-05T22:44:14.298Z,10.20
2022-10-05T22:46:43.232Z,10.10
2022-10-05T22:49:09.984Z,10.10
2022-10-05T22:51:36.653Z,10.00
2022-10-05T22:54:03.410Z,10.10
2022-10-05T22:56:32.613Z,10.10
2022-10-05T22:58:59.295Z,10.00
2022-10-05T23:01:27.094Z,10.00
2022-10-05T23:03:55.351Z,10.00
2022-10-05T23:06:26.560Z,9.90
2022-10-05T23:08:54.331Z,9.90
2022-10-05T23:11:31.144Z,9.80
2022-10-05T23:14:02.553Z,9.90
2022-10-05T23:16:31.516Z,9.90
2022-10-05T23:18:59.184Z,9.90
2022-10-05T23:21:31.885Z,9.90
2022-10-05T23:23:58.623Z,9.90
2022-10-05T23:26:25.807Z,9.90
2022-10-05T23:28:54.648Z,9.90
2022-10-05T23:31:28.793Z,9.90
2022-10-05T23:33:55.787Z,9.90
2022-10-05T23:36:23.881Z,9.90
2022-10-05T23:38:50.809Z,9.90
2022-10-05T23:41:20.471Z,9.80
2022-10-05T23:43:49.720Z,9.80
2022-10-05T23:46:19.254Z,9.70
2022-10-05T23:48:50.269Z,9.70
2022-10-05T23:51:17.404Z,9.80
2022-10-05T23:53:44.219Z,9.80
2022-10-05T23:56:11.339Z,9.80
2022-10-05T23:58:40.967Z,9.70
